sensor_id;sensor_type;location;lat;lon;timestamp;temperature;humidity
15184;DHT22;7693;49.266;7.104;2023-03-05T06:36:21;3.40;99.90
15184;DHT22;7693;49.266;7.104;2023-03-05T06:38:48;3.50;99.90
15184;DHT22;7693;49.266;7.104;2023-03-05T06:41:16;3.50;99.90
15184;DHT22;7693;49.266;7.104;2023-03-05T06:43:44;3.50;99.90
15184;DHT22;7693;49.266;7.104;2023-03-05T06:46:24;3.60;99.90
15184;DHT22;7693;49.266;7.104;2023-03-05T06:48:51;3.60;99.90
15184;DHT22;7693;49.266;7.104;2023-03-05T06:51:23;3.70;99.90
15184;DHT22;7693;49.266;7.104;2023-03-05T06:53:49;3.80;99.90
15184;DHT22;7693;49.266;7.104;2023-03-05T06:56:16;3.80;99.90
15184;DHT22;7693;49.266;7.104;2023-03-05T06:58:43;3.90;99.90
15184;DHT22;7693;49.266;7.104;2023-03-05T07:01:10;3.90;99.90
15184;DHT22;7693;49.266;7.104;2023-03-05T07:03:36;4.00;99.90
15184;DHT22;7693;49.266;7.104;2023-03-05T07:06:03;4.00;99.90
15184;DHT22;7693;49.266;7.104;2023-03-05T07:08:29;4.00;99.90
15184;DHT22;7693;49.266;7.104;2023-03-05T07:10:55;4.10;99.90
15184;DHT22;7693;49.266;7.104;2023-03-05T07:13:21;4.10;99.90
15184;DHT22;7693;49.266;7.104;2023-03-05T07:15:46;4.20;99.90
15184;DHT22;7693;49.266;7.104;2023-03-05T07:18:12;4.30;99.90
15184;DHT22;7693;49.266;7.104;2023-03-05T07:20:37;4.30;99.90
15184;DHT22;7693;49.266;7.104;2023-03-05T07:23:03;4.30;99.90
15184;DHT22;7693;49.266;7.104;2023-03-05T07:25:29;4.40;99.90
15184;DHT22;7693;49.266;7.104;2023-03-05T07:27:55;4.40;99.90
15184;DHT22;7693;49.266;7.104;2023-03-05T07:30:21;4.40;99.90
15184;DHT22;7693;49.266;7.104;2023-03-05T07:32:46;4.40;99.90
15184;DHT22;7693;49.266;7.104;2023-03-05T07:35:12;4.40;99.90
15184;DHT22;7693;49.266;7.104;2023-03-05T07:37:38;4.50;99.90
15184;DHT22;7693;49.266;7.104;2023-03-05T07:40:04;4.50;99.90
15184;DHT22;7693;49.266;7.104;2023-03-05T07:42:30;4.50;99.90
15184;DHT22;7693;49.266;7.104;2023-03-05T07:44:55;4.50;99.90
15184;DHT22;7693;49.266;7.104;2023-03-05T07:47:21;4.50;99.90
15184;DHT22;7693;49.266;7.104;2023-03-05T07:49:48;4.50;99.90
15184;DHT22;7693;49.266;7.104;2023-03-05T07:52:14;4.60;99.90
15184;DHT22;7693;49.266;7.104;2023-03-05T07:54:40;4.60;99.90
15184;DHT22;7693;49.266;7.104;2023-03-05T07:57:07;4.60;99.90
15184;DHT22;7693;49.266;7.104;2023-03-05T07:59:33;4.60;99.90
15184;DHT22;7693;49.266;7.104;2023-03-05T08:01:59;4.70;99.90
15184;DHT22;7693;49.266;7.104;2023-03-05T08:04:25;4.70;99.90
15184;DHT22;7693;49.266;7.104;2023-03-05T08:06:50;4.70;99.90
15184;DHT22;7693;49.266;7.104;2023-03-05T08:09:17;4.80;99.90
15184;DHT22;7693;49.266;7.104;2023-03-05T08:11:43;4.80;99.90
15184;DHT22;7693;49.266;7.104;2023-03-05T08:14:09;4.80;99.90
15184;DHT22;7693;49.266;7.104;2023-03-05T08:16:34;4.80;99.90
15184;DHT22;7693;49.266;7.104;2023-03-05T08:19:00;4.80;99.90
15184;DHT22;7693;49.266;7.104;2023-03-05T08:21:35;4.90;99.90
15184;DHT22;7693;49.266;7.104;2023-03-05T08:24:07;4.90;99.90
15184;DHT22;7693;49.266;7.104;2023-03-05T08:26:34;4.90;99.90
15184;DHT22;7693;49.266;7.104;2023-03-05T08:29:02;4.90;99.90
15184;DHT22;7693;49.266;7.104;2023-03-05T08:31:28;5.00;99.90
15184;DHT22;7693;49.266;7.104;2023-03-05T08:33:56;5.00;99.90
15184;DHT22;7693;49.266;7.104;2023-03-05T08:36:22;5.00;99.90
15184;DHT22;7693;49.266;7.104;2023-03-05T08:38:48;5.10;99.90
15184;DHT22;7693;49.266;7.104;2023-03-05T08:41:16;5.10;99.90
15184;DHT22;7693;49.266;7.104;2023-03-05T08:43:41;5.10;99.90
15184;DHT22;7693;49.266;7.104;2023-03-05T08:46:08;5.20;99.90
15184;DHT22;7693;49.266;7.104;2023-03-05T08:48:34;5.20;99.90
15184;DHT22;7693;49.266;7.104;2023-03-05T08:51:08;5.20;99.90
15184;DHT22;7693;49.266;7.104;2023-03-05T08:53:34;5.30;99.90
15184;DHT22;7693;49.266;7.104;2023-03-05T08:56:00;5.30;99.90
15184;DHT22;7693;49.266;7.104;2023-03-05T08:58:25;5.30;99.90
15184;DHT22;7693;49.266;7.104;2023-03-05T09:00:51;5.30;99.90
15184;DHT22;7693;49.266;7.104;2023-03-05T09:03:17;5.30;99.90
15184;DHT22;7693;49.266;7.104;2023-03-05T09:05:43;5.40;99.90
15184;DHT22;7693;49.266;7.104;2023-03-05T09:08:09;5.40;99.90
15184;DHT22;7693;49.266;7.104;2023-03-05T09:10:34;5.40;99.90
15184;DHT22;7693;49.266;7.104;2023-03-05T09:13:00;5.40;99.90
15184;DHT22;7693;49.266;7.104;2023-03-05T09:15:27;5.40;99.90
15184;DHT22;7693;49.266;7.104;2023-03-05T09:17:53;5.40;99.90
15184;DHT22;7693;49.266;7.104;2023-03-05T09:20:18;5.40;99.90
15184;DHT22;7693;49.266;7.104;2023-03-05T09:22:44;5.40;99.90
15184;DHT22;7693;49.266;7.104;2023-03-05T09:25:10;5.40;99.90
15184;DHT22;7693;49.266;7.104;2023-03-05T09:27:37;5.40;99.90
15184;DHT22;7693;49.266;7.104;2023-03-05T09:30:04;5.40;99.90
15184;DHT22;7693;49.266;7.104;2023-03-05T09:32:30;5.40;99.90
15184;DHT22;7693;49.266;7.104;2023-03-05T09:34:56;5.40;99.90
15184;DHT22;7693;49.266;7.104;2023-03-05T09:37:22;5.50;99.90
15184;DHT22;7693;49.266;7.104;2023-03-05T09:39:48;5.50;99.90
15184;DHT22;7693;49.266;7.104;2023-03-05T09:42:41;5.50;99.90
15184;DHT22;7693;49.266;7.104;2023-03-05T09:48:16;5.60;99.90
15184;DHT22;7693;49.266;7.104;2023-03-05T09:50:51;5.60;99.90
15184;DHT22;7693;49.266;7.104;2023-03-05T09:53:34;5.60;99.90
15184;DHT22;7693;49.266;7.104;2023-03-05T09:56:14;5.60;99.90
15184;DHT22;7693;49.266;7.104;2023-03-05T09:58:51;5.60;99.90
15184;DHT22;7693;49.266;7.104;2023-03-05T10:01:29;5.60;99.90
15184;DHT22;7693;49.266;7.104;2023-03-05T10:04:10;5.60;99.90
15184;DHT22;7693;49.266;7.104;2023-03-05T10:07:25;5.70;99.90
15184;DHT22;7693;49.266;7.104;2023-03-05T10:09:44;5.70;99.90
15184;DHT22;7693;49.266;7.104;2023-03-05T10:14:49;5.80;99.90
15184;DHT22;7693;49.266;7.104;2023-03-05T10:17:23;5.90;99.90
15184;DHT22;7693;49.266;7.104;2023-03-05T10:25:53;6.00;99.90
15184;DHT22;7693;49.266;7.104;2023-03-05T10:28:38;6.00;99.90
15184;DHT22;7693;49.266;7.104;2023-03-05T10:37:11;5.90;99.90
15184;DHT22;7693;49.266;7.104;2023-03-05T10:40:17;5.90;99.90
15184;DHT22;7693;49.266;7.104;2023-03-05T10:45:39;6.00;99.90
15184;DHT22;7693;49.266;7.104;2023-03-05T10:48:34;6.00;99.90
15184;DHT22;7693;49.266;7.104;2023-03-05T10:51:35;6.10;99.90
15184;DHT22;7693;49.266;7.104;2023-03-05T10:54:13;6.10;99.90
15184;DHT22;7693;49.266;7.104;2023-03-05T10:56:42;6.10;99.90
15184;DHT22;7693;49.266;7.104;2023-03-05T13:33:31;5.60;99.90
15184;DHT22;7693;49.266;7.104;2023-03-05T13:35:57;5.60;99.90
15184;DHT22;7693;49.266;7.104;2023-03-05T13:38:43;5.60;99.90
15184;DHT22;7693;49.266;7.104;2023-03-05T13:41:27;5.60;99.90
15184;DHT22;7693;49.266;7.104;2023-03-05T13:43:58;5.60;99.90
15184;DHT22;7693;49.266;7.104;2023-03-05T13:46:33;5.60;99.90
15184;DHT22;7693;49.266;7.104;2023-03-05T13:49:24;5.60;99.90
15184;DHT22;7693;49.266;7.104;2023-03-05T13:51:56;5.60;99.90
15184;DHT22;7693;49.266;7.104;2023-03-05T13:54:25;5.70;99.90
15184;DHT22;7693;49.266;7.104;2023-03-05T13:59:50;5.70;99.90
15184;DHT22;7693;49.266;7.104;2023-03-05T14:02:18;5.70;99.90
15184;DHT22;7693;49.266;7.104;2023-03-05T14:04:44;5.70;99.90
15184;DHT22;7693;49.266;7.104;2023-03-05T14:09:49;5.70;99.90
15184;DHT22;7693;49.266;7.104;2023-03-05T14:12:35;5.70;99.90
15184;DHT22;7693;49.266;7.104;2023-03-05T14:15:24;5.70;99.90
15184;DHT22;7693;49.266;7.104;2023-03-05T14:17:49;5.70;99.90
15184;DHT22;7693;49.266;7.104;2023-03-05T14:22:47;5.70;99.90
15184;DHT22;7693;49.266;7.104;2023-03-05T14:25:34;5.60;99.90
15184;DHT22;7693;49.266;7.104;2023-03-05T14:28:15;5.60;99.90
15184;DHT22;7693;49.266;7.104;2023-03-05T14:30:46;5.50;99.90
15184;DHT22;7693;49.266;7.104;2023-03-05T14:33:11;5.60;99.90
15184;DHT22;7693;49.266;7.104;2023-03-05T14:35:37;5.60;99.90
15184;DHT22;7693;49.266;7.104;2023-03-05T14:38:04;5.60;99.90
15184;DHT22;7693;49.266;7.104;2023-03-05T14:40:35;5.70;99.90
15184;DHT22;7693;49.266;7.104;2023-03-05T14:43:04;5.70;99.90
15184;DHT22;7693;49.266;7.104;2023-03-05T14:45:37;5.80;99.90
15184;DHT22;7693;49.266;7.104;2023-03-05T14:48:04;5.80;99.90
15184;DHT22;7693;49.266;7.104;2023-03-05T14:50:34;5.90;99.90
15184;DHT22;7693;49.266;7.104;2023-03-05T14:53:05;6.00;99.90
15184;DHT22;7693;49.266;7.104;2023-03-05T14:55:31;6.20;99.90
15184;DHT22;7693;49.266;7.104;2023-03-05T14:58:03;6.40;99.90
15184;DHT22;7693;49.266;7.104;2023-03-05T15:00:31;6.60;99.90
15184;DHT22;7693;49.266;7.104;2023-03-05T15:02:57;6.60;99.90
15184;DHT22;7693;49.266;7.104;2023-03-05T15:05:23;6.60;99.90
15184;DHT22;7693;49.266;7.104;2023-03-05T15:07:49;6.60;99.90
15184;DHT22;7693;49.266;7.104;2023-03-05T15:10:18;6.60;99.90
15184;DHT22;7693;49.266;7.104;2023-03-05T15:12:45;6.60;99.90
15184;DHT22;7693;49.266;7.104;2023-03-05T15:15:13;6.60;99.90
15184;DHT22;7693;49.266;7.104;2023-03-05T15:17:41;6.60;99.90
15184;DHT22;7693;49.266;7.104;2023-03-05T15:20:16;6.50;99.90
15184;DHT22;7693;49.266;7.104;2023-03-05T15:22:41;6.40;99.90
15184;DHT22;7693;49.266;7.104;2023-03-05T15:25:07;6.40;99.90
15184;DHT22;7693;49.266;7.104;2023-03-05T15:27:33;6.40;99.90
15184;DHT22;7693;49.266;7.104;2023-03-05T15:29:59;6.30;99.90
15184;DHT22;7693;49.266;7.104;2023-03-05T15:32:28;6.30;99.90
15184;DHT22;7693;49.266;7.104;2023-03-05T15:34:55;6.20;99.90
15184;DHT22;7693;49.266;7.104;2023-03-05T15:37:21;6.20;99.90
15184;DHT22;7693;49.266;7.104;2023-03-05T15:39:46;6.20;99.90
15184;DHT22;7693;49.266;7.104;2023-03-05T15:42:12;6.20;99.90
15184;DHT22;7693;49.266;7.104;2023-03-05T15:44:37;6.20;99.90
15184;DHT22;7693;49.266;7.104;2023-03-05T15:47:05;6.20;99.90
15184;DHT22;7693;49.266;7.104;2023-03-05T15:49:31;6.10;99.90
15184;DHT22;7693;49.266;7.104;2023-03-05T15:51:57;6.10;99.90
15184;DHT22;7693;49.266;7.104;2023-03-05T15:54:22;6.10;99.90
15184;DHT22;7693;49.266;7.104;2023-03-05T15:56:48;6.10;99.90
15184;DHT22;7693;49.266;7.104;2023-03-05T15:59:14;6.00;99.90
15184;DHT22;7693;49.266;7.104;2023-03-05T16:01:44;6.00;99.90
15184;DHT22;7693;49.266;7.104;2023-03-05T16:04:12;6.00;99.90
15184;DHT22;7693;49.266;7.104;2023-03-05T16:06:38;6.00;99.90
15184;DHT22;7693;49.266;7.104;2023-03-05T16:09:04;6.00;99.90
15184;DHT22;7693;49.266;7.104;2023-03-05T16:11:32;5.90;99.90
15184;DHT22;7693;49.266;7.104;2023-03-05T16:14:02;5.90;99.90
15184;DHT22;7693;49.266;7.104;2023-03-05T16:16:30;6.00;99.90
15184;DHT22;7693;49.266;7.104;2023-03-05T16:18:57;6.00;99.90
15184;DHT22;7693;49.266;7.104;2023-03-05T16:21:23;6.00;99.90
15184;DHT22;7693;49.266;7.104;2023-03-05T16:23:49;6.00;99.90
15184;DHT22;7693;49.266;7.104;2023-03-05T16:26:14;6.00;99.90
15184;DHT22;7693;49.266;7.104;2023-03-05T16:28:40;6.00;99.90
15184;DHT22;7693;49.266;7.104;2023-03-05T16:31:06;6.00;99.90
15184;DHT22;7693;49.266;7.104;2023-03-05T16:33:32;5.90;99.90
15184;DHT22;7693;49.266;7.104;2023-03-05T16:36:18;5.90;99.90
15184;DHT22;7693;49.266;7.104;2023-03-05T16:38:48;5.90;99.90
15184;DHT22;7693;49.266;7.104;2023-03-05T16:41:15;5.90;99.90
15184;DHT22;7693;49.266;7.104;2023-03-05T16:43:41;5.80;99.90
15184;DHT22;7693;49.266;7.104;2023-03-05T16:46:08;5.80;99.90
15184;DHT22;7693;49.266;7.104;2023-03-05T16:48:34;5.80;99.90
15184;DHT22;7693;49.266;7.104;2023-03-05T16:51:02;5.80;99.90
15184;DHT22;7693;49.266;7.104;2023-03-05T16:53:28;5.70;99.90
15184;DHT22;7693;49.266;7.104;2023-03-05T16:55:54;5.70;99.90
15184;DHT22;7693;49.266;7.104;2023-03-05T16:58:20;5.70;99.90
15184;DHT22;7693;49.266;7.104;2023-03-05T17:00:45;5.70;99.90
15184;DHT22;7693;49.266;7.104;2023-03-05T17:03:11;5.60;99.90
15184;DHT22;7693;49.266;7.104;2023-03-05T17:05:37;5.60;99.90
15184;DHT22;7693;49.266;7.104;2023-03-05T17:08:03;5.60;99.90
15184;DHT22;7693;49.266;7.104;2023-03-05T17:10:29;5.60;99.90
15184;DHT22;7693;49.266;7.104;2023-03-05T17:12:55;5.60;99.90
15184;DHT22;7693;49.266;7.104;2023-03-05T17:15:22;5.50;99.90
15184;DHT22;7693;49.266;7.104;2023-03-05T17:17:48;5.50;99.90
15184;DHT22;7693;49.266;7.104;2023-03-05T17:20:14;5.50;99.90
15184;DHT22;7693;49.266;7.104;2023-03-05T17:22:40;5.50;99.90
15184;DHT22;7693;49.266;7.104;2023-03-05T17:25:06;5.40;99.90
15184;DHT22;7693;49.266;7.104;2023-03-05T17:27:33;5.40;99.90
15184;DHT22;7693;49.266;7.104;2023-03-05T17:29:58;5.40;99.90
15184;DHT22;7693;49.266;7.104;2023-03-05T17:32:24;5.40;99.90
15184;DHT22;7693;49.266;7.104;2023-03-05T17:34:53;5.40;99.90
15184;DHT22;7693;49.266;7.104;2023-03-05T17:37:20;5.40;99.90
15184;DHT22;7693;49.266;7.104;2023-03-05T17:39:45;5.40;99.90
15184;DHT22;7693;49.266;7.104;2023-03-05T17:42:11;5.30;99.90
15184;DHT22;7693;49.266;7.104;2023-03-05T17:44:37;5.30;99.90
15184;DHT22;7693;49.266;7.104;2023-03-05T17:47:02;5.30;99.90
15184;DHT22;7693;49.266;7.104;2023-03-05T17:49:28;5.30;99.90
15184;DHT22;7693;49.266;7.104;2023-03-05T17:51:54;5.30;99.90
15184;DHT22;7693;49.266;7.104;2023-03-05T17:54:19;5.30;99.90
15184;DHT22;7693;49.266;7.104;2023-03-05T17:56:45;5.30;99.90
15184;DHT22;7693;49.266;7.104;2023-03-05T17:59:12;5.30;99.90
15184;DHT22;7693;49.266;7.104;2023-03-05T18:01:39;5.20;99.90
15184;DHT22;7693;49.266;7.104;2023-03-05T18:04:05;5.20;99.90
15184;DHT22;7693;49.266;7.104;2023-03-05T18:06:31;5.20;99.90
15184;DHT22;7693;49.266;7.104;2023-03-05T18:08:56;5.20;99.90
15184;DHT22;7693;49.266;7.104;2023-03-05T18:11:22;5.20;99.90
15184;DHT22;7693;49.266;7.104;2023-03-05T18:13:48;5.20;99.90
15184;DHT22;7693;49.266;7.104;2023-03-05T18:16:14;5.20;99.90
15184;DHT22;7693;49.266;7.104;2023-03-05T18:18:42;5.20;99.90
15184;DHT22;7693;49.266;7.104;2023-03-05T18:21:07;5.10;99.90
15184;DHT22;7693;49.266;7.104;2023-03-05T18:23:33;5.10;99.90
15184;DHT22;7693;49.266;7.104;2023-03-05T18:25:59;5.10;99.90
15184;DHT22;7693;49.266;7.104;2023-03-05T18:28:24;5.10;99.90
15184;DHT22;7693;49.266;7.104;2023-03-05T18:30:51;5.10;99.90
15184;DHT22;7693;49.266;7.104;2023-03-05T18:33:21;5.10;99.90
15184;DHT22;7693;49.266;7.104;2023-03-05T18:35:48;5.10;99.90
15184;DHT22;7693;49.266;7.104;2023-03-05T18:38:18;5.10;99.90
15184;DHT22;7693;49.266;7.104;2023-03-05T18:40:44;5.10;99.90
15184;DHT22;7693;49.266;7.104;2023-03-05T18:43:11;5.00;99.90
15184;DHT22;7693;49.266;7.104;2023-03-05T18:45:36;5.00;99.90
15184;DHT22;7693;49.266;7.104;2023-03-05T18:48:02;5.00;99.90
15184;DHT22;7693;49.266;7.104;2023-03-05T18:50:28;5.00;99.90
15184;DHT22;7693;49.266;7.104;2023-03-05T18:52:54;4.90;99.90
15184;DHT22;7693;49.266;7.104;2023-03-05T18:55:25;4.90;99.90
15184;DHT22;7693;49.266;7.104;2023-03-05T18:57:51;4.90;99.90
15184;DHT22;7693;49.266;7.104;2023-03-05T19:00:23;4.90;99.90
15184;DHT22;7693;49.266;7.104;2023-03-05T19:02:49;4.90;99.90
15184;DHT22;7693;49.266;7.104;2023-03-05T19:05:16;4.80;99.90
15184;DHT22;7693;49.266;7.104;2023-03-05T19:07:41;4.80;99.90
15184;DHT22;7693;49.266;7.104;2023-03-05T19:10:08;4.80;99.90
15184;DHT22;7693;49.266;7.104;2023-03-05T19:12:36;4.80;99.90
15184;DHT22;7693;49.266;7.104;2023-03-05T19:15:11;4.80;99.90
15184;DHT22;7693;49.266;7.104;2023-03-05T19:17:36;4.80;99.90
15184;DHT22;7693;49.266;7.104;2023-03-05T19:20:03;4.80;99.90
15184;DHT22;7693;49.266;7.104;2023-03-05T19:22:32;4.80;99.90
15184;DHT22;7693;49.266;7.104;2023-03-05T19:24:59;4.80;99.90
15184;DHT22;7693;49.266;7.104;2023-03-05T19:27:26;4.80;99.90
15184;DHT22;7693;49.266;7.104;2023-03-05T19:29:51;4.80;99.90
15184;DHT22;7693;49.266;7.104;2023-03-05T19:32:18;4.70;99.90
15184;DHT22;7693;49.266;7.104;2023-03-05T19:34:46;4.70;99.90
15184;DHT22;7693;49.266;7.104;2023-03-05T19:37:12;4.70;99.90
15184;DHT22;7693;49.266;7.104;2023-03-05T19:39:37;4.70;99.90
15184;DHT22;7693;49.266;7.104;2023-03-05T19:42:03;4.70;99.90
15184;DHT22;7693;49.266;7.104;2023-03-05T19:44:29;4.70;99.90
15184;DHT22;7693;49.266;7.104;2023-03-05T19:46:55;4.70;99.90
15184;DHT22;7693;49.266;7.104;2023-03-05T19:49:21;4.70;99.90
15184;DHT22;7693;49.266;7.104;2023-03-05T19:51:47;4.70;99.90
15184;DHT22;7693;49.266;7.104;2023-03-05T19:54:15;4.70;99.90
15184;DHT22;7693;49.266;7.104;2023-03-05T19:56:43;4.70;99.90
15184;DHT22;7693;49.266;7.104;2023-03-05T19:59:09;4.70;99.90
15184;DHT22;7693;49.266;7.104;2023-03-05T20:01:35;4.70;99.90
15184;DHT22;7693;49.266;7.104;2023-03-05T20:04:03;4.70;99.90
15184;DHT22;7693;49.266;7.104;2023-03-05T20:06:31;4.60;99.90
15184;DHT22;7693;49.266;7.104;2023-03-05T20:08:57;4.60;99.90
15184;DHT22;7693;49.266;7.104;2023-03-05T20:11:23;4.60;99.90
15184;DHT22;7693;49.266;7.104;2023-03-05T20:13:50;4.60;99.90
15184;DHT22;7693;49.266;7.104;2023-03-05T20:16:30;4.60;99.90
15184;DHT22;7693;49.266;7.104;2023-03-05T20:18:57;4.60;99.90
15184;DHT22;7693;49.266;7.104;2023-03-05T20:21:29;4.60;99.90
15184;DHT22;7693;49.266;7.104;2023-03-05T20:23:57;4.60;99.90
15184;DHT22;7693;49.266;7.104;2023-03-05T20:26:24;4.60;99.90
15184;DHT22;7693;49.266;7.104;2023-03-05T20:28:54;4.50;99.90
15184;DHT22;7693;49.266;7.104;2023-03-05T20:31:22;4.50;99.90
15184;DHT22;7693;49.266;7.104;2023-03-05T20:33:48;4.50;99.90
15184;DHT22;7693;49.266;7.104;2023-03-05T20:36:14;4.50;99.90
15184;DHT22;7693;49.266;7.104;2023-03-05T20:38:39;4.50;99.90
15184;DHT22;7693;49.266;7.104;2023-03-05T20:41:08;4.50;99.90
15184;DHT22;7693;49.266;7.104;2023-03-05T20:43:40;4.50;99.90
15184;DHT22;7693;49.266;7.104;2023-03-05T20:46:32;4.50;99.90
15184;DHT22;7693;49.266;7.104;2023-03-05T20:48:59;4.50;99.90
15184;DHT22;7693;49.266;7.104;2023-03-05T20:51:31;4.50;99.90
15184;DHT22;7693;49.266;7.104;2023-03-05T20:53:59;4.50;99.90
15184;DHT22;7693;49.266;7.104;2023-03-05T20:56:27;4.50;99.90
15184;DHT22;7693;49.266;7.104;2023-03-05T20:58:54;4.40;99.90
15184;DHT22;7693;49.266;7.104;2023-03-05T21:01:20;4.40;99.90
15184;DHT22;7693;49.266;7.104;2023-03-05T21:03:46;4.40;99.90
15184;DHT22;7693;49.266;7.104;2023-03-05T21:06:12;4.40;99.90
15184;DHT22;7693;49.266;7.104;2023-03-05T21:08:37;4.40;99.90
15184;DHT22;7693;49.266;7.104;2023-03-05T21:11:05;4.40;99.90
15184;DHT22;7693;49.266;7.104;2023-03-05T21:13:32;4.40;99.90
15184;DHT22;7693;49.266;7.104;2023-03-05T21:15:57;4.40;99.90
15184;DHT22;7693;49.266;7.104;2023-03-05T21:18:23;4.40;99.90
15184;DHT22;7693;49.266;7.104;2023-03-05T21:20:52;4.40;99.90
15184;DHT22;7693;49.266;7.104;2023-03-05T21:23:18;4.40;99.90
15184;DHT22;7693;49.266;7.104;2023-03-05T21:25:44;4.40;99.90
15184;DHT22;7693;49.266;7.104;2023-03-05T21:28:12;4.40;99.90
15184;DHT22;7693;49.266;7.104;2023-03-05T21:30:43;4.40;99.90
15184;DHT22;7693;49.266;7.104;2023-03-05T21:33:23;4.40;99.90
15184;DHT22;7693;49.266;7.104;2023-03-05T21:35:50;4.40;99.90
15184;DHT22;7693;49.266;7.104;2023-03-05T21:38:22;4.40;99.90
15184;DHT22;7693;49.266;7.104;2023-03-05T21:40:50;4.40;99.90
15184;DHT22;7693;49.266;7.104;2023-03-05T21:43:18;4.40;99.90
15184;DHT22;7693;49.266;7.104;2023-03-05T21:45:44;4.40;99.90
15184;DHT22;7693;49.266;7.104;2023-03-05T21:48:11;4.40;99.90
15184;DHT22;7693;49.266;7.104;2023-03-05T21:50:38;4.40;99.90
15184;DHT22;7693;49.266;7.104;2023-03-05T21:53:04;4.40;99.90
15184;DHT22;7693;49.266;7.104;2023-03-05T21:55:30;4.40;99.90
15184;DHT22;7693;49.266;7.104;2023-03-05T21:58:09;4.40;99.90
15184;DHT22;7693;49.266;7.104;2023-03-05T22:00:35;4.40;99.90
15184;DHT22;7693;49.266;7.104;2023-03-05T22:03:00;4.40;99.90
15184;DHT22;7693;49.266;7.104;2023-03-05T22:05:26;4.40;99.90
15184;DHT22;7693;49.266;7.104;2023-03-05T22:07:51;4.30;99.90
15184;DHT22;7693;49.266;7.104;2023-03-05T22:10:18;4.30;99.90
15184;DHT22;7693;49.266;7.104;2023-03-05T22:12:57;4.30;99.90
15184;DHT22;7693;49.266;7.104;2023-03-05T22:15:32;4.30;99.90
15184;DHT22;7693;49.266;7.104;2023-03-05T22:17:58;4.30;99.90
15184;DHT22;7693;49.266;7.104;2023-03-05T22:20:24;4.30;99.90
15184;DHT22;7693;49.266;7.104;2023-03-05T22:22:50;4.30;99.90
15184;DHT22;7693;49.266;7.104;2023-03-05T22:25:16;4.30;99.90
15184;DHT22;7693;49.266;7.104;2023-03-05T22:27:43;4.30;99.90
15184;DHT22;7693;49.266;7.104;2023-03-05T22:30:10;4.30;99.90
15184;DHT22;7693;49.266;7.104;2023-03-05T22:32:36;4.30;99.90
15184;DHT22;7693;49.266;7.104;2023-03-05T22:35:03;4.30;99.90
15184;DHT22;7693;49.266;7.104;2023-03-05T22:37:30;4.30;99.90
15184;DHT22;7693;49.266;7.104;2023-03-05T22:39:56;4.30;99.90
15184;DHT22;7693;49.266;7.104;2023-03-05T22:42:22;4.30;99.90
15184;DHT22;7693;49.266;7.104;2023-03-05T22:44:48;4.30;99.90
15184;DHT22;7693;49.266;7.104;2023-03-05T22:47:14;4.30;99.90
15184;DHT22;7693;49.266;7.104;2023-03-05T22:49:39;4.30;99.90
15184;DHT22;7693;49.266;7.104;2023-03-05T22:52:05;4.30;99.90
15184;DHT22;7693;49.266;7.104;2023-03-05T22:54:31;4.30;99.90
15184;DHT22;7693;49.266;7.104;2023-03-05T22:56:56;4.30;99.90
15184;DHT22;7693;49.266;7.104;2023-03-05T22:59:22;4.30;99.90
15184;DHT22;7693;49.266;7.104;2023-03-05T23:01:47;4.20;99.90
15184;DHT22;7693;49.266;7.104;2023-03-05T23:04:14;4.30;99.90
15184;DHT22;7693;49.266;7.104;2023-03-05T23:06:54;4.20;99.90
15184;DHT22;7693;49.266;7.104;2023-03-05T23:09:19;4.20;99.90
15184;DHT22;7693;49.266;7.104;2023-03-05T23:11:45;4.20;99.90
15184;DHT22;7693;49.266;7.104;2023-03-05T23:14:11;4.20;99.90
15184;DHT22;7693;49.266;7.104;2023-03-05T23:16:36;4.20;99.90
15184;DHT22;7693;49.266;7.104;2023-03-05T23:19:02;4.20;99.90
15184;DHT22;7693;49.266;7.104;2023-03-05T23:21:27;4.20;99.90
15184;DHT22;7693;49.266;7.104;2023-03-05T23:23:53;4.20;99.90
15184;DHT22;7693;49.266;7.104;2023-03-05T23:26:20;4.20;99.90
15184;DHT22;7693;49.266;7.104;2023-03-05T23:28:46;4.20;99.90
15184;DHT22;7693;49.266;7.104;2023-03-05T23:31:11;4.20;99.90
15184;DHT22;7693;49.266;7.104;2023-03-05T23:33:37;4.20;99.90
15184;DHT22;7693;49.266;7.104;2023-03-05T23:36:03;4.10;99.90
15184;DHT22;7693;49.266;7.104;2023-03-05T23:38:29;4.10;99.90
15184;DHT22;7693;49.266;7.104;2023-03-05T23:40:56;4.10;99.90
15184;DHT22;7693;49.266;7.104;2023-03-05T23:43:24;4.10;99.90
15184;DHT22;7693;49.266;7.104;2023-03-05T23:45:50;4.10;99.90
